createdAt,value
2018-02-27T00:01:13.340Z,8.73
2018-02-27T00:03:41.570Z,6.53
2018-02-27T00:06:09.023Z,12.33
2018-02-27T00:08:36.839Z,13.47
2018-02-27T00:11:05.093Z,7.17
2018-02-27T00:13:32.573Z,10.27
2018-02-27T00:16:00.822Z,13.07
2018-02-27T00:18:28.330Z,13.87
2018-02-27T00:20:56.547Z,10.30
2018-02-27T00:23:24.007Z,7.80
2018-02-27T00:25:51.460Z,8.43
2018-02-27T00:28:19.109Z,8.10
2018-02-27T00:30:46.581Z,7.53
2018-02-27T00:33:14.031Z,7.17
2018-02-27T00:35:41.523Z,8.43
2018-02-27T00:38:09.945Z,10.77
2018-02-27T00:40:37.427Z,10.10
2018-02-27T00:43:04.882Z,5.53
2018-02-27T00:45:32.396Z,9.03
2018-02-27T00:48:00.620Z,8.60
2018-02-27T00:50:28.108Z,9.83
2018-02-27T00:52:55.552Z,9.03
2018-02-27T00:55:23.044Z,8.93
2018-02-27T00:57:51.319Z,9.00
2018-02-27T01:00:19.551Z,11.00
2018-02-27T01:02:47.025Z,6.37
2018-02-27T01:05:14.497Z,10.77
2018-02-27T01:07:41.977Z,13.20
2018-02-27T01:10:09.472Z,10.10
2018-02-27T01:12:36.928Z,8.20
2018-02-27T01:15:04.434Z,8.37
2018-02-27T01:17:31.899Z,8.93
2018-02-27T01:20:00.172Z,7.10
2018-02-27T01:22:28.449Z,10.93
2018-02-27T01:24:56.731Z,8.83
2018-02-27T01:27:24.999Z,9.13
2018-02-27T01:29:52.527Z,8.43
2018-02-27T01:32:20.003Z,6.83
2018-02-27T01:34:47.478Z,10.03
2018-02-27T01:37:14.935Z,8.73
2018-02-27T01:39:42.400Z,6.33
2018-02-27T01:42:10.674Z,9.27
2018-02-27T01:44:38.999Z,7.87
2018-02-27T01:47:06.471Z,12.87
2018-02-27T01:49:34.030Z,6.20
2018-02-27T01:52:01.527Z,8.60
2018-02-27T01:54:28.980Z,12.27
2018-02-27T01:56:56.444Z,8.00
2018-02-27T01:59:24.693Z,10.10
2018-02-27T02:01:52.235Z,10.83
2018-02-27T02:04:19.747Z,10.43
2018-02-27T02:06:48.001Z,11.17
2018-02-27T02:09:15.467Z,10.07
2018-02-27T02:11:42.988Z,7.43
2018-02-27T02:14:10.491Z,10.73
2018-02-27T02:16:37.943Z,10.00
2018-02-27T02:19:05.426Z,8.80
2018-02-27T02:21:33.660Z,8.70
2018-02-27T02:24:01.135Z,12.47
2018-02-27T02:26:28.597Z,17.60
2018-02-27T02:28:56.040Z,14.20
2018-02-27T02:31:23.586Z,10.77
2018-02-27T02:33:51.060Z,10.27
2018-02-27T02:36:18.559Z,14.40
2018-02-27T02:38:46.782Z,11.27
2018-02-27T02:41:14.251Z,11.90
2018-02-27T02:43:41.708Z,8.00
2018-02-27T02:46:09.207Z,13.93
2018-02-27T02:48:37.427Z,12.87
2018-02-27T02:51:04.882Z,10.40
2018-02-27T02:53:32.371Z,11.37
2018-02-27T02:55:59.815Z,12.27
2018-02-27T02:58:27.297Z,10.60
2018-02-27T03:00:54.754Z,12.73
2018-02-27T03:03:22.267Z,9.83
2018-02-27T03:05:49.730Z,14.23
2018-02-27T03:08:17.211Z,7.30
2018-02-27T03:10:44.696Z,8.20
2018-02-27T03:13:12.971Z,9.90
2018-02-27T03:15:41.222Z,11.80
2018-02-27T03:18:08.710Z,9.73
2018-02-27T03:20:36.952Z,10.73
2018-02-27T03:23:04.510Z,13.63
2018-02-27T03:25:31.995Z,13.70
2018-02-27T03:27:59.442Z,16.70
2018-02-27T03:30:26.909Z,15.10
2018-02-27T03:32:54.355Z,12.10
2018-02-27T03:35:21.826Z,8.67
2018-02-27T03:37:49.284Z,15.63
2018-02-27T03:40:16.793Z,16.27
2018-02-27T03:42:44.299Z,10.13
2018-02-27T03:45:11.823Z,11.07
2018-02-27T03:47:39.292Z,14.07
2018-02-27T03:50:06.776Z,10.80
2018-02-27T03:52:34.231Z,16.07
2018-02-27T03:55:01.866Z,12.17
2018-02-27T03:57:29.354Z,9.07
2018-02-27T03:59:56.799Z,14.47
2018-02-27T04:02:24.259Z,9.60
2018-02-27T04:04:51.727Z,11.70
2018-02-27T04:07:19.171Z,9.73
2018-02-27T04:09:46.622Z,10.83
2018-02-27T04:12:14.059Z,8.90
2018-02-27T04:14:41.562Z,8.10
2018-02-27T04:17:09.003Z,19.73
2018-02-27T04:19:36.480Z,8.77
2018-02-27T04:22:04.014Z,12.07
2018-02-27T04:24:31.472Z,6.33
2018-02-27T04:26:58.926Z,11.23
2018-02-27T04:29:26.398Z,7.60
2018-02-27T04:31:53.870Z,10.90
2018-02-27T04:34:21.315Z,8.27
2018-02-27T04:36:48.774Z,8.80
2018-02-27T04:39:16.238Z,9.17
2018-02-27T04:41:43.961Z,6.87
2018-02-27T04:44:11.448Z,8.97
2018-02-27T04:46:38.923Z,9.67
2018-02-27T04:49:06.382Z,7.50
2018-02-27T04:51:33.896Z,9.67
2018-02-27T04:54:01.371Z,7.73
2018-02-27T04:56:28.832Z,9.90
2018-02-27T04:58:56.472Z,13.23
2018-02-27T05:01:24.004Z,10.70
2018-02-27T05:03:52.625Z,11.67
2018-02-27T05:06:20.110Z,11.20
2018-02-27T05:08:47.587Z,12.20
2018-02-27T05:11:15.063Z,12.13
2018-02-27T05:13:43.296Z,12.33
2018-02-27T05:16:10.868Z,8.43
2018-02-27T05:18:38.318Z,11.30
2018-02-27T05:21:05.807Z,15.63
2018-02-27T05:23:34.054Z,9.33
2018-02-27T05:26:01.533Z,11.87
2018-02-27T05:28:29.010Z,20.13
2018-02-27T05:30:57.285Z,13.30
2018-02-27T05:33:25.526Z,8.63
2018-02-27T05:35:53.007Z,11.90
2018-02-27T05:38:20.478Z,6.80
2018-02-27T05:40:48.711Z,9.13
2018-02-27T05:43:16.178Z,10.20
2018-02-27T05:45:43.683Z,12.00
2018-02-27T05:48:11.167Z,10.53
2018-02-27T05:50:38.640Z,10.10
2018-02-27T05:53:06.108Z,11.23
2018-02-27T05:55:33.608Z,10.80
2018-02-27T05:58:01.871Z,10.60
2018-02-27T06:00:29.500Z,10.53
2018-02-27T06:02:56.982Z,10.77
2018-02-27T06:05:24.554Z,12.73
2018-02-27T06:07:52.058Z,10.10
2018-02-27T06:10:20.249Z,16.83
2018-02-27T06:12:47.716Z,11.17
2018-02-27T06:15:15.213Z,12.60
2018-02-27T06:17:43.448Z,11.87
2018-02-27T06:20:10.920Z,13.03
2018-02-27T06:22:38.371Z,14.37
2018-02-27T06:25:05.828Z,10.57
2018-02-27T06:27:33.275Z,7.17
2018-02-27T06:30:01.171Z,7.67
2018-02-27T06:32:29.429Z,9.40
2018-02-27T06:34:56.878Z,15.60
2018-02-27T06:37:24.372Z,14.53
2018-02-27T06:39:52.062Z,9.40
2018-02-27T06:42:19.540Z,14.60
2018-02-27T06:44:46.995Z,11.80
2018-02-27T06:47:14.551Z,12.53
2018-02-27T06:49:41.975Z,7.50
2018-02-27T06:52:10.241Z,14.40
2018-02-27T06:54:38.056Z,8.90
2018-02-27T06:57:05.546Z,15.07
2018-02-27T06:59:33.802Z,12.20
2018-02-27T07:02:01.281Z,14.27
2018-02-27T07:04:28.787Z,8.23
2018-02-27T07:06:57.013Z,15.10
2018-02-27T07:09:24.552Z,13.00
2018-02-27T07:11:52.206Z,10.37
2018-02-27T07:14:19.689Z,11.37
2018-02-27T07:16:47.195Z,14.13
2018-02-27T07:19:15.562Z,14.50
2018-02-27T07:21:43.806Z,14.60
2018-02-27T07:24:11.279Z,16.77
2018-02-27T07:26:38.763Z,8.07
2018-02-27T07:29:07.011Z,11.87
2018-02-27T07:31:34.514Z,11.10
2018-02-27T07:34:02.825Z,15.67
2018-02-27T07:36:30.271Z,9.70
2018-02-27T07:38:57.790Z,9.90
2018-02-27T07:41:25.300Z,14.07
2018-02-27T07:43:53.531Z,13.63
2018-02-27T07:46:22.088Z,11.73
2018-02-27T07:48:49.579Z,12.60
2018-02-27T07:51:17.849Z,14.40
2018-02-27T07:53:46.179Z,13.67
2018-02-27T07:56:13.628Z,14.87
2018-02-27T07:58:41.108Z,11.27
2018-02-27T08:01:08.567Z,8.60
2018-02-27T08:03:36.027Z,15.70
2018-02-27T08:06:03.663Z,15.63
2018-02-27T08:08:31.174Z,3.47
2018-02-27T08:10:58.626Z,13.10
2018-02-27T08:13:26.098Z,11.33
2018-02-27T08:15:54.351Z,8.93
2018-02-27T08:18:21.825Z,12.93
2018-02-27T08:20:49.296Z,11.93
2018-02-27T08:23:17.535Z,6.57
2018-02-27T08:25:45.015Z,11.07
2018-02-27T08:28:12.485Z,10.33
2018-02-27T08:30:40.756Z,10.37
2018-02-27T08:33:08.206Z,15.83
2018-02-27T08:35:35.670Z,12.63
2018-02-27T08:38:03.936Z,10.13
2018-02-27T08:40:31.403Z,10.67
2018-02-27T08:42:58.872Z,9.53
2018-02-27T08:45:27.083Z,12.13
2018-02-27T08:47:54.598Z,8.77
2018-02-27T08:50:22.858Z,13.67
2018-02-27T08:52:50.408Z,10.03
2018-02-27T08:55:17.881Z,9.47
2018-02-27T08:57:45.450Z,16.70
2018-02-27T09:00:12.908Z,8.07
2018-02-27T09:02:40.374Z,11.50
2018-02-27T09:05:07.828Z,12.13
2018-02-27T09:07:36.117Z,9.03
2018-02-27T09:10:04.427Z,12.10
2018-02-27T09:12:31.865Z,10.37
2018-02-27T09:14:59.364Z,10.30
2018-02-27T09:17:26.840Z,9.47
2018-02-27T09:19:54.393Z,9.97
2018-02-27T09:22:21.865Z,11.13
2018-02-27T09:24:49.521Z,8.97
2018-02-27T09:27:16.987Z,15.40
2018-02-27T09:29:44.505Z,17.43
2018-02-27T09:32:11.915Z,12.43
2018-02-27T09:34:40.143Z,8.50
2018-02-27T09:37:07.632Z,10.50
2018-02-27T09:39:35.083Z,8.30
2018-02-27T09:42:02.547Z,11.03
2018-02-27T09:44:30.015Z,10.00
2018-02-27T09:46:57.464Z,11.60
2018-02-27T09:49:24.920Z,6.33
2018-02-27T09:51:52.403Z,7.97
2018-02-27T09:54:20.655Z,7.77
2018-02-27T09:56:48.146Z,10.17
2018-02-27T09:59:16.367Z,8.00
2018-02-27T10:01:43.874Z,9.80
2018-02-27T10:04:11.293Z,7.57
2018-02-27T10:06:38.726Z,9.10
2018-02-27T10:09:06.201Z,7.87
2018-02-27T10:11:33.663Z,11.10
2018-02-27T10:14:01.123Z,14.50
2018-02-27T10:16:28.676Z,14.63
2018-02-27T10:18:56.177Z,16.00
2018-02-27T10:21:23.703Z,16.47
2018-02-27T10:23:51.198Z,11.77
2018-02-27T10:26:19.478Z,12.40
2018-02-27T10:28:47.714Z,13.70
2018-02-27T10:31:15.159Z,10.90
2018-02-27T10:33:42.612Z,13.90
2018-02-27T10:36:10.352Z,7.60
2018-02-27T10:38:38.579Z,7.90
2018-02-27T10:41:06.031Z,9.00
2018-02-27T10:43:33.544Z,6.90
2018-02-27T10:46:01.855Z,6.67
2018-02-27T10:48:29.354Z,6.80
2018-02-27T10:50:56.885Z,9.00
2018-02-27T10:53:24.342Z,7.83
2018-02-27T10:55:51.827Z,7.00
2018-02-27T10:58:19.290Z,11.13
2018-02-27T11:00:50.686Z,5.27
2018-02-27T11:03:18.194Z,10.50
2018-02-27T11:05:45.660Z,9.10
2018-02-27T11:08:13.893Z,7.57
2018-02-27T11:10:41.439Z,6.07
2018-02-27T11:13:09.102Z,6.43
2018-02-27T11:15:36.574Z,5.90
2018-02-27T11:18:04.059Z,7.43
2018-02-27T11:20:31.528Z,5.57
2018-02-27T11:22:59.002Z,7.30
2018-02-27T11:25:27.253Z,4.50
2018-02-27T11:27:54.713Z,4.97
2018-02-27T11:30:22.204Z,7.03
2018-02-27T11:32:50.418Z,3.30
2018-02-27T11:35:17.897Z,7.20
2018-02-27T11:37:45.382Z,7.07
2018-02-27T11:40:13.765Z,3.27
2018-02-27T11:42:42.005Z,5.67
2018-02-27T11:45:09.475Z,6.80
2018-02-27T11:47:36.928Z,8.33
2018-02-27T11:50:04.393Z,6.50
2018-02-27T11:52:31.858Z,6.40
2018-02-27T11:54:59.338Z,9.40
2018-02-27T11:57:27.574Z,6.80
2018-02-27T11:59:55.050Z,8.27
2018-02-27T12:02:22.517Z,9.83
2018-02-27T12:04:50.066Z,6.63
2018-02-27T12:07:17.540Z,7.00
2018-02-27T12:09:45.798Z,10.70
2018-02-27T12:12:13.407Z,11.53
2018-02-27T12:14:40.846Z,12.50
2018-02-27T12:17:09.078Z,12.10
2018-02-27T12:19:36.572Z,8.37
2018-02-27T12:22:03.998Z,10.43
2018-02-27T12:24:31.512Z,8.00
2018-02-27T12:26:59.008Z,15.27
2018-02-27T12:29:26.528Z,8.53
2018-02-27T12:31:54.754Z,6.83
2018-02-27T12:34:22.343Z,8.83
2018-02-27T12:36:49.816Z,11.00
2018-02-27T12:39:18.103Z,9.00
2018-02-27T12:41:46.322Z,10.00
2018-02-27T12:44:13.819Z,9.50
2018-02-27T12:46:42.241Z,10.00
2018-02-27T12:49:09.757Z,9.90
2018-02-27T12:51:38.101Z,10.77
2018-02-27T12:54:05.575Z,9.50
2018-02-27T12:56:33.092Z,11.13
2018-02-27T12:59:00.557Z,14.10
2018-02-27T13:01:28.267Z,7.60
2018-02-27T13:03:55.826Z,6.20
2018-02-27T13:06:23.865Z,10.23
2018-02-27T13:08:51.347Z,7.53
2018-02-27T13:11:18.851Z,8.53
2018-02-27T13:13:46.265Z,10.93
2018-02-27T13:16:15.268Z,11.97
2018-02-27T13:18:42.729Z,10.43
2018-02-27T13:21:10.183Z,9.30
2018-02-27T13:23:37.639Z,8.90
2018-02-27T13:26:05.085Z,9.17
2018-02-27T13:28:32.549Z,9.30
2018-02-27T13:31:00.102Z,12.30
2018-02-27T13:33:27.655Z,10.43
2018-02-27T13:35:55.112Z,11.23
2018-02-27T13:38:22.639Z,11.30
2018-02-27T13:40:50.137Z,11.30
2018-02-27T13:43:17.766Z,11.63
2018-02-27T13:45:45.228Z,12.00
2018-02-27T13:48:12.988Z,8.37
2018-02-27T13:50:40.527Z,9.87
2018-02-27T13:53:08.762Z,10.30
2018-02-27T13:55:36.265Z,9.30
2018-02-27T13:58:05.141Z,10.60
2018-02-27T14:00:33.491Z,8.17
2018-02-27T14:03:00.989Z,6.93
2018-02-27T14:05:28.758Z,11.10
2018-02-27T14:07:57.070Z,7.90
2018-02-27T14:10:24.591Z,7.20
2018-02-27T14:12:53.100Z,8.83
2018-02-27T14:15:20.582Z,7.53
2018-02-27T14:17:48.146Z,8.77
2018-02-27T14:20:15.685Z,8.30
2018-02-27T14:22:43.166Z,7.87
2018-02-27T14:25:10.613Z,7.27
2018-02-27T14:27:38.072Z,8.30
2018-02-27T14:30:05.528Z,8.27
2018-02-27T14:32:33.020Z,8.40
2018-02-27T14:35:00.484Z,9.17
2018-02-27T14:37:28.294Z,5.93
2018-02-27T14:39:55.834Z,6.50
2018-02-27T14:42:23.326Z,14.23
2018-02-27T14:44:50.788Z,8.40
2018-02-27T14:47:18.453Z,5.93
2018-02-27T14:49:46.077Z,7.50
2018-02-27T14:52:13.606Z,5.10
2018-02-27T14:54:41.371Z,7.37
2018-02-27T14:57:08.844Z,7.10
2018-02-27T14:59:37.197Z,7.43
2018-02-27T15:02:04.675Z,6.13
2018-02-27T15:04:32.949Z,11.27
2018-02-27T15:07:00.406Z,7.73
2018-02-27T15:09:27.901Z,6.90
2018-02-27T15:11:55.384Z,8.50
2018-02-27T15:14:22.839Z,4.33
2018-02-27T15:16:51.468Z,6.73
2018-02-27T15:19:18.915Z,5.87
2018-02-27T15:21:46.383Z,10.30
2018-02-27T15:24:13.840Z,7.10
2018-02-27T15:26:41.349Z,8.10
2018-02-27T15:29:08.876Z,11.20
2018-02-27T15:31:37.176Z,11.70
2018-02-27T15:34:04.642Z,10.60
2018-02-27T15:36:32.241Z,9.23
2018-02-27T15:38:59.778Z,8.97
2018-02-27T15:41:27.955Z,7.10
2018-02-27T15:43:55.603Z,6.43
2018-02-27T15:46:23.303Z,9.67
2018-02-27T15:48:50.771Z,9.20
2018-02-27T15:51:18.246Z,9.73
2018-02-27T15:53:46.498Z,9.20
2018-02-27T15:56:13.964Z,11.97
2018-02-27T15:58:41.425Z,7.87
2018-02-27T16:01:09.001Z,13.50
2018-02-27T16:03:36.952Z,5.30
2018-02-27T16:06:04.410Z,9.60
2018-02-27T16:08:32.024Z,8.07
2018-02-27T16:10:59.500Z,9.80
2018-02-27T16:13:27.211Z,7.73
2018-02-27T16:15:55.683Z,8.50
2018-02-27T16:18:23.171Z,7.73
2018-02-27T16:20:50.627Z,6.47
2018-02-27T16:23:19.026Z,7.67
2018-02-27T16:25:46.528Z,8.60
2018-02-27T16:28:13.996Z,7.60
2018-02-27T16:30:41.512Z,8.97
2018-02-27T16:33:09.018Z,8.00
2018-02-27T16:35:37.575Z,7.10
2018-02-27T16:38:05.103Z,8.50
2018-02-27T16:40:32.561Z,9.20
2018-02-27T16:43:00.106Z,5.30
2018-02-27T16:45:28.337Z,13.03
2018-02-27T16:47:55.919Z,12.03
2018-02-27T16:50:23.375Z,6.23
2018-02-27T16:52:50.918Z,7.80
2018-02-27T16:55:18.450Z,6.30
2018-02-27T16:57:45.912Z,8.80
2018-02-27T17:00:13.623Z,5.40
2018-02-27T17:02:41.859Z,7.10
2018-02-27T17:05:09.618Z,9.87
2018-02-27T17:07:37.128Z,8.27
2018-02-27T17:10:04.607Z,7.53
2018-02-27T17:12:32.420Z,7.40
2018-02-27T17:14:59.919Z,5.80
2018-02-27T17:17:28.165Z,7.70
2018-02-27T17:19:55.663Z,8.30
2018-02-27T17:22:23.983Z,7.60
2018-02-27T17:24:51.587Z,8.30
2018-02-27T17:27:19.063Z,10.73
2018-02-27T17:29:46.561Z,8.37
2018-02-27T17:32:14.274Z,11.03
2018-02-27T17:34:41.734Z,8.90
2018-02-27T17:37:10.007Z,9.03
2018-02-27T17:39:37.455Z,7.20
2018-02-27T17:42:04.916Z,10.70
2018-02-27T17:44:32.495Z,8.30
2018-02-27T17:47:00.760Z,10.00
2018-02-27T17:49:29.141Z,12.80
2018-02-27T17:51:57.529Z,8.90
2018-02-27T17:54:25.773Z,11.33
2018-02-27T17:56:53.301Z,8.87
2018-02-27T17:59:20.937Z,13.60
2018-02-27T18:01:49.191Z,10.50
2018-02-27T18:04:17.018Z,11.30
2018-02-27T18:06:44.523Z,8.63
2018-02-27T18:09:12.995Z,9.60
2018-02-27T18:11:40.451Z,11.93
2018-02-27T18:14:07.921Z,16.00
2018-02-27T18:16:36.175Z,8.80
2018-02-27T18:19:03.647Z,8.30
2018-02-27T18:21:31.099Z,12.47
2018-02-27T18:24:00.097Z,14.07
2018-02-27T18:26:28.018Z,13.93
2018-02-27T18:28:55.597Z,8.37
2018-02-27T18:31:23.141Z,12.57
2018-02-27T18:33:50.659Z,10.33
2018-02-27T18:36:18.898Z,14.77
2018-02-27T18:38:46.378Z,12.40
2018-02-27T18:41:13.835Z,13.20
2018-02-27T18:43:41.681Z,12.17
2018-02-27T18:46:09.250Z,14.63
2018-02-27T18:48:36.800Z,17.50
2018-02-27T18:51:04.283Z,18.67
2018-02-27T18:53:32.136Z,16.33
2018-02-27T18:55:59.597Z,19.57
2018-02-27T18:58:27.051Z,18.50
2018-02-27T19:00:54.635Z,18.27
2018-02-27T19:03:22.135Z,15.00
2018-02-27T19:05:49.665Z,15.63
2018-02-27T19:08:17.182Z,9.77
2018-02-27T19:10:44.669Z,12.20
2018-02-27T19:13:12.188Z,14.47
2018-02-27T19:15:39.667Z,13.30
2018-02-27T19:18:07.140Z,16.30
2018-02-27T19:20:34.764Z,13.67
2018-02-27T19:23:02.266Z,18.50
2018-02-27T19:25:29.779Z,15.30
2018-02-27T19:27:57.263Z,19.27
2018-02-27T19:30:24.827Z,14.10
2018-02-27T19:32:52.372Z,16.00
2018-02-27T19:35:19.941Z,15.20
2018-02-27T19:37:47.435Z,13.70
2018-02-27T19:40:15.346Z,15.53
2018-02-27T19:42:42.840Z,15.13
2018-02-27T19:45:10.325Z,16.17
2018-02-27T19:47:37.892Z,14.20
2018-02-27T19:50:06.250Z,16.30
2018-02-27T19:52:34.529Z,18.50
2018-02-27T19:55:02.047Z,18.17
2018-02-27T19:57:29.547Z,14.40
2018-02-27T19:59:57.824Z,20.80
2018-02-27T20:02:25.351Z,21.57
2018-02-27T20:04:52.912Z,17.47
2018-02-27T20:07:20.443Z,9.47
2018-02-27T20:09:47.911Z,15.63
2018-02-27T20:12:15.471Z,13.20
2018-02-27T20:14:43.003Z,12.93
2018-02-27T20:17:11.323Z,11.97
2018-02-27T20:19:38.992Z,14.40
2018-02-27T20:22:06.731Z,17.97
2018-02-27T20:24:34.629Z,11.83
2018-02-27T20:27:02.107Z,15.53
2018-02-27T20:29:29.614Z,14.57
2018-02-27T20:31:57.207Z,10.57
2018-02-27T20:34:24.678Z,14.63
2018-02-27T20:36:52.939Z,12.80
2018-02-27T20:39:24.396Z,14.43
2018-02-27T20:41:52.075Z,16.60
2018-02-27T20:44:19.532Z,15.00
2018-02-27T20:46:47.019Z,14.20
2018-02-27T20:49:15.294Z,13.97
2018-02-27T20:51:43.530Z,13.40
2018-02-27T20:54:11.207Z,13.03
2018-02-27T20:56:38.926Z,19.87
2018-02-27T20:59:06.691Z,16.87
2018-02-27T21:01:34.142Z,15.87
2018-02-27T21:04:01.603Z,15.53
2018-02-27T21:06:29.098Z,15.53
2018-02-27T21:08:56.789Z,19.63
2018-02-27T21:11:24.300Z,12.87
2018-02-27T21:13:51.816Z,16.80
2018-02-27T21:16:20.296Z,18.70
2018-02-27T21:18:48.636Z,16.60
2018-02-27T21:21:16.369Z,20.67
2018-02-27T21:23:43.830Z,16.43
2018-02-27T21:26:11.371Z,18.63
2018-02-27T21:28:38.949Z,18.40
2018-02-27T21:31:06.835Z,15.73
2018-02-27T21:33:34.342Z,19.10
2018-02-27T21:36:02.034Z,23.90
2018-02-27T21:38:29.563Z,19.10
2018-02-27T21:40:57.835Z,16.10
2018-02-27T21:43:25.875Z,19.00
2018-02-27T21:45:53.367Z,17.20
2018-02-27T21:48:21.643Z,20.77
2018-02-27T21:50:49.968Z,19.30
2018-02-27T21:53:17.441Z,20.20
2018-02-27T21:55:44.958Z,19.60
2018-02-27T21:58:13.434Z,15.90
2018-02-27T22:00:41.695Z,19.53
2018-02-27T22:03:10.053Z,15.47
2018-02-27T22:05:37.536Z,16.07
2018-02-27T22:08:06.644Z,17.47
2018-02-27T22:10:34.219Z,15.80
2018-02-27T22:13:02.449Z,15.80
2018-02-27T22:15:30.005Z,15.40
2018-02-27T22:17:57.537Z,22.47
2018-02-27T22:20:25.052Z,17.17
2018-02-27T22:22:53.347Z,19.73
2018-02-27T22:25:20.828Z,15.40
2018-02-27T22:27:48.312Z,18.40
2018-02-27T22:30:15.796Z,15.97
2018-02-27T22:32:43.259Z,16.67
2018-02-27T22:35:11.835Z,24.40
2018-02-27T22:37:39.507Z,24.33
2018-02-27T22:40:07.803Z,24.20
2018-02-27T22:42:36.159Z,17.70
2018-02-27T22:45:03.942Z,25.17
2018-02-27T22:47:32.412Z,19.10
2018-02-27T22:50:00.661Z,20.70
2018-02-27T22:52:28.139Z,23.03
2018-02-27T22:54:55.603Z,24.53
2018-02-27T22:57:23.082Z,27.57
2018-02-27T22:59:51.566Z,28.20
2018-02-27T23:02:19.842Z,20.60
2018-02-27T23:04:47.348Z,23.73
2018-02-27T23:07:15.123Z,23.70
2018-02-27T23:09:42.613Z,22.47
2018-02-27T23:12:11.599Z,21.37
2018-02-27T23:14:39.903Z,26.20
2018-02-27T23:17:08.138Z,24.03
2018-02-27T23:19:35.886Z,23.87
2018-02-27T23:22:05.021Z,24.40
2018-02-27T23:24:36.512Z,22.43
2018-02-27T23:27:04.091Z,18.70
2018-02-27T23:29:34.238Z,25.70
2018-02-27T23:32:02.646Z,20.93
2018-02-27T23:34:34.230Z,22.30
2018-02-27T23:37:01.924Z,20.13
2018-02-27T23:39:29.371Z,22.87
2018-02-27T23:41:56.856Z,22.57
2018-02-27T23:44:24.309Z,23.20
2018-02-27T23:46:51.902Z,20.30
2018-02-27T23:49:20.154Z,24.97
2018-02-27T23:51:47.607Z,21.70
2018-02-27T23:54:15.178Z,24.37
2018-02-27T23:56:42.648Z,25.30
2018-02-27T23:59:10.140Z,26.27
